Don Miguel Hidalgo Y Costilla International Airport
MMGL : rendu visible

Aérodrome :











RETROUVEZ-NOUS SUR...

 
LOGIN :

S'inscrire | Disclaimer

   EN    FR    IT 

 









Légende :    VFR   VFR Marginal   IFR   IFR Intensif   IFR Très Intensif
Visi : 
Plafond : 
>= 8 km
>= 3000ft
5 à 8 km
1000 à 3000 ft
1500m à 5 km
500 à 1000 ft
800 à 1500m
200 à 500 ft
< 800m
< 200 ft
Symboles :   Orages  Brouillard  Fortes neiges  Fortes précipitations  Vent > 20 kt






- Altitude de l'aérodrome : 5016 ft
- Code IATA : GDL


MMGL - Don Miguel Hidalgo Y Costilla International

DERNIER METAR :
  • 100740Z 20003KT 8SM SKC 10/06 A3019

METARs EXPIRÉS :
  • 100651Z 00000KT 8SM SKC 10/06 A3020
  • 100548Z 00000KT 8SM SKC 12/06 A3020 RMK SLP121 57002 957

TAF TAF MMGL
Valide du 10 à 06h jusqu'au 11 à 12h UTC


100452Z 1006/1112 00000KT P6SM SKC TX26/1021Z TN06/1012Z
FM101800 26010KT P6SM SCT030 SCT240
BECMG 1105/1107 08005KT



MET'MAP, la Météo Aéronautique d'un coup d'oeil ! - Copyright ORBIFLY Décembre 2007 - Disclaimer

ORBIFLY MET'MAP TEAM :

Programmation & Développement : Alexandra Zaïnal
Sur une idée originale de : Baudouin d'Aumeries
Assistance à la programmation : Marc-Olivier Méhu
Soutien technique & logistique : Manuel Goepfert

Contact : metmap@orbifly.com




SOURCES & CREDITS :

   NOAA       Earth
Advisory